createdAt,value
2017-09-18T00:00:20.537Z,18.30
2017-09-18T00:00:55.388Z,17.50
2017-09-18T00:01:29.101Z,19.60
2017-09-18T00:02:02.820Z,17.35
2017-09-18T00:02:36.393Z,19.33
2017-09-18T00:03:10.118Z,19.42
2017-09-18T00:03:44.887Z,18.37
2017-09-18T00:04:18.622Z,19.75
2017-09-18T00:04:52.340Z,19.65
2017-09-18T00:05:26.067Z,18.75
2017-09-18T00:06:00.222Z,19.58
2017-09-18T00:06:34.009Z,19.08
2017-09-18T00:07:08.490Z,19.98
2017-09-18T00:07:42.216Z,20.08
2017-09-18T00:08:16.768Z,19.02
2017-09-18T00:08:50.568Z,19.87
2017-09-18T00:09:24.289Z,21.10
2017-09-18T00:09:58.025Z,18.90
2017-09-18T00:10:31.733Z,21.50
2017-09-18T00:11:06.819Z,20.40
2017-09-18T00:11:40.528Z,21.35
2017-09-18T00:12:14.240Z,21.35
2017-09-18T00:12:47.968Z,19.77
2017-09-18T00:13:22.456Z,19.65
2017-09-18T00:13:56.176Z,19.30
2017-09-18T00:14:30.697Z,19.77
2017-09-18T00:15:04.504Z,20.55
2017-09-18T00:15:38.235Z,22.17
2017-09-18T00:16:12.400Z,20.88
2017-09-18T00:16:46.120Z,22.45
2017-09-18T00:17:19.832Z,23.00
2017-09-18T00:17:53.541Z,19.15
2017-09-18T00:18:28.063Z,20.50
2017-09-18T00:19:01.772Z,20.70
2017-09-18T00:19:35.297Z,20.00
2017-09-18T00:20:09.023Z,19.60
2017-09-18T00:20:43.500Z,20.40
2017-09-18T00:21:17.543Z,21.70
2017-09-18T00:21:51.250Z,19.73
2017-09-18T00:22:24.963Z,22.13
2017-09-18T00:22:58.692Z,19.12
2017-09-18T00:23:33.188Z,19.50
2017-09-18T00:24:06.975Z,19.70
2017-09-18T00:24:40.690Z,21.08
2017-09-18T00:25:15.156Z,20.37
2017-09-18T00:25:48.867Z,19.05
2017-09-18T00:26:22.911Z,20.02
2017-09-18T00:26:56.675Z,20.48
2017-09-18T00:27:31.145Z,20.23
2017-09-18T00:28:04.867Z,19.05
2017-09-18T00:28:39.355Z,19.90
2017-09-18T00:29:13.062Z,19.80
2017-09-18T00:29:46.822Z,19.87
2017-09-18T00:30:19.848Z,21.85
2017-09-18T00:30:53.564Z,20.20
2017-09-18T00:31:27.596Z,18.92
2017-09-18T00:32:01.312Z,20.25
2017-09-18T00:32:35.793Z,19.70
2017-09-18T00:33:09.506Z,19.40
2017-09-18T00:33:43.985Z,20.12
2017-09-18T00:34:17.692Z,19.60
2017-09-18T00:34:51.222Z,21.80
2017-09-18T00:35:24.938Z,21.20
2017-09-18T00:35:58.640Z,20.90
2017-09-18T00:36:32.685Z,20.45
2017-09-18T00:37:07.216Z,20.30
2017-09-18T00:37:40.572Z,22.15
2017-09-18T00:38:15.044Z,20.62
2017-09-18T00:38:48.746Z,20.92
2017-09-18T00:39:22.464Z,20.90
2017-09-18T00:39:56.983Z,20.50
2017-09-18T00:40:30.702Z,20.70
2017-09-18T00:41:04.418Z,18.83
2017-09-18T00:41:38.453Z,18.42
2017-09-18T00:42:12.573Z,20.48
2017-09-18T00:42:46.282Z,18.48
2017-09-18T00:43:20.030Z,18.98
2017-09-18T00:43:54.179Z,18.70
2017-09-18T00:44:28.768Z,20.10
2017-09-18T00:45:02.481Z,20.27
2017-09-18T00:45:36.198Z,18.80
2017-09-18T00:46:09.903Z,20.00
2017-09-18T00:46:44.440Z,18.52
2017-09-18T00:47:18.167Z,17.62
2017-09-18T00:47:51.899Z,17.92
2017-09-18T00:48:26.377Z,17.62
2017-09-18T00:49:00.099Z,16.62
2017-09-18T00:49:34.624Z,19.45
2017-09-18T00:50:07.649Z,17.02
2017-09-18T00:50:40.720Z,17.20
2017-09-18T00:51:13.733Z,17.45
2017-09-18T00:51:47.607Z,17.02
2017-09-18T00:52:20.448Z,17.30
2017-09-18T00:52:53.280Z,16.67
2017-09-18T00:53:26.118Z,16.40
2017-09-18T00:53:58.962Z,16.48
2017-09-18T00:54:31.792Z,18.65
2017-09-18T00:55:05.730Z,17.60
2017-09-18T00:55:38.748Z,18.30
2017-09-18T00:56:13.221Z,18.73
2017-09-18T00:56:47.264Z,17.67
2017-09-18T00:57:21.007Z,16.33
2017-09-18T00:57:54.197Z,17.80
2017-09-18T00:58:27.910Z,14.80
2017-09-18T00:59:02.401Z,16.40
2017-09-18T00:59:35.756Z,18.45
2017-09-18T01:00:09.120Z,15.82
2017-09-18T01:00:42.853Z,17.05
2017-09-18T01:01:16.561Z,18.25
2017-09-18T01:01:51.439Z,16.75
2017-09-18T01:02:25.148Z,17.73
2017-09-18T01:02:58.864Z,16.87
2017-09-18T01:03:33.348Z,15.80
2017-09-18T01:04:08.601Z,15.93
2017-09-18T01:04:43.134Z,17.67
2017-09-18T01:05:16.858Z,16.65
2017-09-18T01:05:50.582Z,16.60
2017-09-18T01:06:25.061Z,16.98
2017-09-18T01:06:59.136Z,15.75
2017-09-18T01:07:32.869Z,16.77
2017-09-18T01:08:07.595Z,14.65
2017-09-18T01:08:42.069Z,15.07
2017-09-18T01:09:15.796Z,15.95
2017-09-18T01:09:50.278Z,16.05
2017-09-18T01:10:24.023Z,16.48
2017-09-18T01:10:57.733Z,17.80
2017-09-18T01:11:31.107Z,16.65
2017-09-18T01:12:04.810Z,16.77
2017-09-18T01:12:38.508Z,18.08
2017-09-18T01:13:11.871Z,15.70
2017-09-18T01:13:45.634Z,16.35
2017-09-18T01:14:20.818Z,17.05
2017-09-18T01:14:54.544Z,16.52
2017-09-18T01:15:29.028Z,16.33
2017-09-18T01:16:02.738Z,15.18
2017-09-18T01:16:37.519Z,16.48
2017-09-18T01:17:11.556Z,17.27
2017-09-18T01:17:46.023Z,17.80
2017-09-18T01:18:19.773Z,17.80
2017-09-18T01:18:53.493Z,16.83
2017-09-18T01:19:26.858Z,16.90
2017-09-18T01:20:00.314Z,18.60
2017-09-18T01:20:35.058Z,16.62
2017-09-18T01:21:08.425Z,15.90
2017-09-18T01:21:42.140Z,16.48
2017-09-18T01:22:15.910Z,15.73
2017-09-18T01:22:48.946Z,15.93
2017-09-18T01:23:22.659Z,15.73
2017-09-18T01:23:57.151Z,16.40
2017-09-18T01:24:31.629Z,16.65
2017-09-18T01:25:05.333Z,16.10
2017-09-18T01:25:39.042Z,17.30
2017-09-18T01:26:13.516Z,15.75
2017-09-18T01:26:47.228Z,15.95
2017-09-18T01:27:21.264Z,15.50
2017-09-18T01:27:55.729Z,17.80
2017-09-18T01:28:29.446Z,15.57
2017-09-18T01:29:03.922Z,17.17
2017-09-18T01:29:37.649Z,18.00
2017-09-18T01:30:12.137Z,17.12
2017-09-18T01:30:45.860Z,15.88
2017-09-18T01:31:19.572Z,16.23
2017-09-18T01:31:52.758Z,15.85
2017-09-18T01:32:26.827Z,18.02
2017-09-18T01:33:00.558Z,17.12
2017-09-18T01:33:34.273Z,18.50
2017-09-18T01:34:07.992Z,16.73
2017-09-18T01:34:42.475Z,15.73
2017-09-18T01:35:16.237Z,17.27
2017-09-18T01:35:49.959Z,17.58
2017-09-18T01:36:23.929Z,17.23
2017-09-18T01:36:57.648Z,15.63
2017-09-18T01:37:31.672Z,19.05
2017-09-18T01:38:06.155Z,16.30
2017-09-18T01:38:39.872Z,15.93
2017-09-18T01:39:14.383Z,15.13
2017-09-18T01:39:48.186Z,16.25
2017-09-18T01:40:22.108Z,15.95
2017-09-18T01:40:55.813Z,16.10
2017-09-18T01:41:29.565Z,15.43
2017-09-18T01:42:03.283Z,15.57
2017-09-18T01:42:37.005Z,15.95
2017-09-18T01:43:10.712Z,14.65
2017-09-18T01:43:45.200Z,15.80
2017-09-18T01:44:18.911Z,15.95
2017-09-18T01:44:53.381Z,15.50
2017-09-18T01:45:27.099Z,15.25
2017-09-18T01:46:01.578Z,16.83
2017-09-18T01:46:35.284Z,14.13
2017-09-18T01:47:09.015Z,15.20
2017-09-18T01:47:43.111Z,15.38
2017-09-18T01:48:16.820Z,16.80
2017-09-18T01:48:50.530Z,16.05
2017-09-18T01:49:24.245Z,15.60
2017-09-18T01:49:57.949Z,14.63
2017-09-18T01:50:32.471Z,14.98
2017-09-18T01:51:06.952Z,15.13
2017-09-18T01:51:41.516Z,15.48
2017-09-18T01:52:15.229Z,14.18
2017-09-18T01:52:49.239Z,15.38
2017-09-18T01:53:23.882Z,15.73
2017-09-18T01:53:58.364Z,15.70
2017-09-18T01:54:32.095Z,14.90
2017-09-18T01:55:06.588Z,14.30
2017-09-18T01:55:41.073Z,15.15
2017-09-18T01:56:14.789Z,15.15
2017-09-18T01:56:49.272Z,14.38
2017-09-18T01:57:23.084Z,15.05
2017-09-18T01:57:57.116Z,16.42
2017-09-18T01:58:30.829Z,15.75
2017-09-18T01:59:04.537Z,16.58
2017-09-18T01:59:38.256Z,16.85
2017-09-18T02:00:12.735Z,15.98
2017-09-18T02:00:46.457Z,14.60
2017-09-18T02:01:20.767Z,14.98
2017-09-18T02:01:55.268Z,15.45
2017-09-18T02:02:28.985Z,15.60
2017-09-18T02:03:02.892Z,14.18
2017-09-18T02:03:36.619Z,13.52
2017-09-18T02:04:10.342Z,14.65
2017-09-18T02:04:44.822Z,16.00
2017-09-18T02:05:18.012Z,15.70
2017-09-18T02:05:51.748Z,16.00
2017-09-18T02:06:25.471Z,14.50
2017-09-18T02:06:59.184Z,14.48
2017-09-18T02:07:32.898Z,15.48
2017-09-18T02:08:07.740Z,15.00
2017-09-18T02:08:41.460Z,15.20
2017-09-18T02:09:15.197Z,14.50
2017-09-18T02:09:49.676Z,15.10
2017-09-18T02:10:23.397Z,14.40
2017-09-18T02:10:57.876Z,15.32
2017-09-18T02:11:31.606Z,14.98
2017-09-18T02:12:05.341Z,15.40
2017-09-18T02:12:39.076Z,15.15
2017-09-18T02:13:13.912Z,16.27
2017-09-18T02:13:47.624Z,15.77
2017-09-18T02:14:21.356Z,15.02
2017-09-18T02:14:55.066Z,12.95
2017-09-18T02:15:29.552Z,15.45
2017-09-18T02:16:04.035Z,13.25
2017-09-18T02:16:37.756Z,13.10
2017-09-18T02:17:11.460Z,14.70
2017-09-18T02:17:45.944Z,13.32
2017-09-18T02:18:19.933Z,14.70
2017-09-18T02:18:53.655Z,14.43
2017-09-18T02:19:28.133Z,13.90
2017-09-18T02:20:01.853Z,13.95
2017-09-18T02:20:36.330Z,13.40
2017-09-18T02:21:09.857Z,13.73
2017-09-18T02:21:43.582Z,13.62
2017-09-18T02:22:17.289Z,14.45
2017-09-18T02:22:51.020Z,13.60
2017-09-18T02:23:25.849Z,13.82
2017-09-18T02:23:59.569Z,13.93
2017-09-18T02:24:33.284Z,15.40
2017-09-18T02:25:06.996Z,14.85
2017-09-18T02:25:40.758Z,15.00
2017-09-18T02:26:14.482Z,12.65
2017-09-18T02:26:48.961Z,15.13
2017-09-18T02:27:22.677Z,15.05
2017-09-18T02:27:56.386Z,13.43
2017-09-18T02:28:30.294Z,14.90
2017-09-18T02:29:04.025Z,12.85
2017-09-18T02:29:37.758Z,13.98
2017-09-18T02:30:11.887Z,13.68
2017-09-18T02:30:45.611Z,14.93
2017-09-18T02:31:19.137Z,14.15
2017-09-18T02:31:53.626Z,15.43
2017-09-18T02:32:27.350Z,13.38
2017-09-18T02:33:01.072Z,15.23
2017-09-18T02:33:35.137Z,15.05
2017-09-18T02:34:08.680Z,14.15
2017-09-18T02:34:42.412Z,14.80
2017-09-18T02:35:16.135Z,15.00
2017-09-18T02:35:49.845Z,15.07
2017-09-18T02:36:23.473Z,15.95
2017-09-18T02:36:57.963Z,15.35
2017-09-18T02:37:31.684Z,13.95
2017-09-18T02:38:05.417Z,14.05
2017-09-18T02:38:39.300Z,14.20
2017-09-18T02:39:13.030Z,15.00
2017-09-18T02:39:47.519Z,14.38
2017-09-18T02:40:21.230Z,15.65
2017-09-18T02:40:55.714Z,14.20
2017-09-18T02:41:29.443Z,15.05
2017-09-18T02:42:03.931Z,14.27
2017-09-18T02:42:37.300Z,15.73
2017-09-18T02:43:11.028Z,15.93
2017-09-18T02:43:45.863Z,16.05
2017-09-18T02:44:19.577Z,15.95
2017-09-18T02:44:53.281Z,15.48
2017-09-18T02:45:26.999Z,15.18
2017-09-18T02:46:00.711Z,14.07
2017-09-18T02:46:35.197Z,14.55
2017-09-18T02:47:08.913Z,13.50
2017-09-18T02:47:43.394Z,14.25
2017-09-18T02:48:17.112Z,13.98
2017-09-18T02:48:51.951Z,13.43
2017-09-18T02:49:25.661Z,12.63
2017-09-18T02:49:59.379Z,12.68
2017-09-18T02:50:33.100Z,13.70
2017-09-18T02:51:07.579Z,14.15
2017-09-18T02:51:41.306Z,11.85
2017-09-18T02:52:15.025Z,15.13
2017-09-18T02:52:48.757Z,13.80
2017-09-18T02:53:22.483Z,12.90
2017-09-18T02:53:56.530Z,12.55
2017-09-18T02:54:30.256Z,14.38
2017-09-18T02:55:04.741Z,13.70
2017-09-18T02:55:38.493Z,14.05
2017-09-18T02:56:12.249Z,13.90
2017-09-18T02:56:46.760Z,13.50
2017-09-18T02:57:20.493Z,14.02
2017-09-18T02:57:54.230Z,13.85
2017-09-18T02:58:28.712Z,12.88
2017-09-18T02:59:02.771Z,14.30
2017-09-18T02:59:36.485Z,12.80
2017-09-18T03:00:09.887Z,14.40
2017-09-18T03:00:43.587Z,14.55
2017-09-18T03:01:17.301Z,15.32
2017-09-18T03:01:51.802Z,14.02
2017-09-18T03:02:26.278Z,13.13
2017-09-18T04:23:03.597Z,14.82
2017-09-18T04:23:37.296Z,16.83
2017-09-18T04:24:11.018Z,19.05
2017-09-18T04:24:45.480Z,18.00
2017-09-18T04:25:19.188Z,18.67
2017-09-18T04:25:52.901Z,19.45
2017-09-18T04:26:27.204Z,19.87
2017-09-18T04:27:00.923Z,19.17
2017-09-18T04:27:34.444Z,18.67
2017-09-18T04:28:08.490Z,17.30
2017-09-18T04:28:42.956Z,19.60
2017-09-18T04:29:16.657Z,18.40
2017-09-18T04:29:50.368Z,17.73
2017-09-18T04:30:24.841Z,20.20
2017-09-18T04:30:58.557Z,18.80
2017-09-18T04:31:32.096Z,17.37
2017-09-18T04:32:05.825Z,19.60
2017-09-18T04:32:40.316Z,19.85
2017-09-18T04:33:14.379Z,18.52
2017-09-18T04:33:48.092Z,20.37
2017-09-18T04:34:21.625Z,20.17
2017-09-18T04:34:55.321Z,18.40
2017-09-18T04:35:29.799Z,17.60
2017-09-18T04:36:02.985Z,19.50
2017-09-18T04:36:36.695Z,20.75
2017-09-18T04:37:11.172Z,18.48
2017-09-18T04:37:44.908Z,18.08
2017-09-18T04:38:19.013Z,18.87
2017-09-18T04:38:52.772Z,18.45
2017-09-18T04:39:26.309Z,18.23
2017-09-18T04:39:59.497Z,17.62
2017-09-18T04:40:33.223Z,16.85
2017-09-18T04:41:06.949Z,18.00
2017-09-18T04:41:40.683Z,18.45
2017-09-18T04:42:14.414Z,17.12
2017-09-18T04:42:48.887Z,17.37
2017-09-18T04:43:22.962Z,17.25
2017-09-18T04:43:56.663Z,17.73
2017-09-18T04:44:30.365Z,16.37
2017-09-18T04:45:03.740Z,17.50
2017-09-18T04:45:37.461Z,18.98
2017-09-18T04:46:11.209Z,18.87
2017-09-18T04:46:44.932Z,17.55
2017-09-18T04:47:18.650Z,17.52
2017-09-18T04:47:53.121Z,18.70
2017-09-18T04:48:27.184Z,18.17
2017-09-18T04:49:00.950Z,18.20
2017-09-18T04:49:35.434Z,17.12
2017-09-18T04:50:09.151Z,18.35
2017-09-18T04:50:43.633Z,18.75
2017-09-18T04:51:17.331Z,18.02
2017-09-18T04:51:51.040Z,19.00
2017-09-18T04:52:25.517Z,18.17
2017-09-18T04:52:59.255Z,18.52
2017-09-18T04:53:33.281Z,17.15
2017-09-18T04:54:06.998Z,17.75
2017-09-18T04:54:40.536Z,17.35
2017-09-18T04:55:14.258Z,19.87
2017-09-18T04:55:47.972Z,18.12
2017-09-18T04:56:21.704Z,17.35
2017-09-18T04:56:55.225Z,16.83
2017-09-18T04:57:28.945Z,17.10
2017-09-18T04:58:03.425Z,17.77
2017-09-18T04:58:37.486Z,19.23
2017-09-18T04:59:11.005Z,15.90
2017-09-18T04:59:44.762Z,15.75
2017-09-18T05:00:18.481Z,17.58
2017-09-18T05:00:52.180Z,17.30
2017-09-18T05:01:25.892Z,15.23
2017-09-18T05:01:59.608Z,16.62
2017-09-18T05:02:34.084Z,15.60
2017-09-18T05:03:07.811Z,15.98
2017-09-18T05:03:41.934Z,16.40
2017-09-18T05:04:15.644Z,16.85
2017-09-18T05:04:49.973Z,16.55
2017-09-18T05:05:24.452Z,18.95
2017-09-18T05:05:58.162Z,18.08
2017-09-18T05:06:31.959Z,17.00
2017-09-18T05:07:05.682Z,15.68
2017-09-18T05:07:40.153Z,15.68
2017-09-18T05:08:13.869Z,15.85
2017-09-18T05:08:48.712Z,19.23
2017-09-18T05:09:22.487Z,16.95
2017-09-18T05:09:56.956Z,15.65
2017-09-18T05:10:30.666Z,16.20
2017-09-18T05:11:04.376Z,14.55
2017-09-18T05:11:38.846Z,15.60
2017-09-18T05:12:12.557Z,15.85
2017-09-18T05:12:46.286Z,15.57
2017-09-18T05:13:20.005Z,14.68
2017-09-18T05:13:54.063Z,13.90
2017-09-18T05:14:28.541Z,14.13
2017-09-18T05:15:02.262Z,12.73
2017-09-18T05:15:36.748Z,12.55
2017-09-18T05:16:11.049Z,12.98
2017-09-18T05:16:44.417Z,12.30
2017-09-18T05:17:18.139Z,13.52
2017-09-18T05:17:52.624Z,13.40
2017-09-18T05:18:26.331Z,14.15
2017-09-18T05:19:00.329Z,13.13
2017-09-18T05:19:34.795Z,13.85
2017-09-18T05:20:08.513Z,14.60
2017-09-18T05:20:42.236Z,13.55
2017-09-18T05:21:15.945Z,14.27
2017-09-18T05:21:49.654Z,14.63
2017-09-18T05:22:23.385Z,13.90
2017-09-18T05:22:57.100Z,14.52
2017-09-18T05:23:31.392Z,13.62
2017-09-18T05:24:06.020Z,13.55
2017-09-18T05:24:39.736Z,14.10
2017-09-18T05:25:13.432Z,14.75
2017-09-18T05:25:47.165Z,13.68
2017-09-18T05:26:20.688Z,13.23
2017-09-18T05:26:54.396Z,13.38
2017-09-18T05:27:28.096Z,14.60
2017-09-18T05:28:01.849Z,12.88
2017-09-18T05:28:35.374Z,12.45
2017-09-18T05:29:09.229Z,12.18
2017-09-18T05:29:42.944Z,11.52
2017-09-18T05:30:16.659Z,12.40
2017-09-18T05:30:50.379Z,13.80
2017-09-18T05:31:24.676Z,12.85
2017-09-18T05:31:59.150Z,12.50
2017-09-18T05:32:32.865Z,13.07
2017-09-18T05:33:06.592Z,12.02
2017-09-18T05:33:40.373Z,11.30
2017-09-18T05:34:14.948Z,12.63
2017-09-18T05:34:48.468Z,12.37
2017-09-18T05:35:22.756Z,12.75
2017-09-18T05:35:56.466Z,11.23
2017-09-18T05:36:30.948Z,11.90
2017-09-18T05:37:04.662Z,12.18
2017-09-18T05:37:39.130Z,11.98
2017-09-18T05:38:12.844Z,12.50
2017-09-18T05:38:47.336Z,12.50
2017-09-18T05:39:21.373Z,11.85
2017-09-18T05:39:55.845Z,14.48
2017-09-18T05:40:29.545Z,12.60
2017-09-18T05:41:03.256Z,12.77
2017-09-18T05:41:37.729Z,13.40
2017-09-18T05:42:11.428Z,12.35
2017-09-18T05:42:45.142Z,13.13
2017-09-18T05:43:19.614Z,13.15
2017-09-18T05:43:53.324Z,16.20
2017-09-18T05:44:27.354Z,13.68
2017-09-18T05:45:01.067Z,12.75
2017-09-18T05:45:34.786Z,11.65
2017-09-18T05:46:08.511Z,12.45
2017-09-18T05:46:42.992Z,12.20
2017-09-18T05:47:16.708Z,12.00
2017-09-18T05:47:51.217Z,12.35
2017-09-18T05:48:25.701Z,12.32
2017-09-18T05:48:59.400Z,13.38
2017-09-18T05:49:33.428Z,14.87
2017-09-18T05:50:07.131Z,12.80
2017-09-18T05:50:40.841Z,13.30
2017-09-18T05:51:14.541Z,13.62
2017-09-18T05:51:48.261Z,13.18
2017-09-18T05:52:21.969Z,11.82
2017-09-18T05:52:56.439Z,12.98
2017-09-18T05:53:30.141Z,12.73
2017-09-18T05:54:03.857Z,13.10
2017-09-18T05:54:40.226Z,11.65
2017-09-18T05:55:13.753Z,12.93
2017-09-18T05:55:47.467Z,11.50
2017-09-18T05:56:21.941Z,12.25
2017-09-18T05:56:55.650Z,12.20
2017-09-18T05:57:29.375Z,13.15
2017-09-18T05:58:03.660Z,11.43
2017-09-18T05:58:37.364Z,10.63
2017-09-18T05:59:11.864Z,11.07
2017-09-18T05:59:46.701Z,11.43
2017-09-18T06:00:21.071Z,11.60
2017-09-18T06:00:54.780Z,11.40
2017-09-18T06:01:28.488Z,9.43
2017-09-18T06:02:02.976Z,10.38
2017-09-18T06:02:36.500Z,9.95
2017-09-18T06:03:10.217Z,11.45
2017-09-18T06:03:43.940Z,10.43
2017-09-18T06:04:17.669Z,10.20
2017-09-18T06:04:51.770Z,11.15
2017-09-18T06:05:25.484Z,8.95
2017-09-18T06:05:59.228Z,10.10
2017-09-18T06:06:33.717Z,10.40
2017-09-18T06:07:07.233Z,8.85
2017-09-18T06:07:41.522Z,10.55
2017-09-18T06:08:16.032Z,10.10
2017-09-18T06:08:50.521Z,10.30
2017-09-18T06:09:25.767Z,10.18
2017-09-18T06:09:59.890Z,9.23
2017-09-18T06:10:33.408Z,9.50
2017-09-18T06:11:07.149Z,10.48
2017-09-18T06:11:41.619Z,9.32
2017-09-18T06:12:15.325Z,9.30
2017-09-18T06:12:49.031Z,10.35
2017-09-18T06:13:22.741Z,9.18
2017-09-18T06:13:56.462Z,10.18
2017-09-18T06:14:30.188Z,10.40
2017-09-18T06:15:03.933Z,10.10
2017-09-18T06:15:37.666Z,9.70
2017-09-18T06:16:12.147Z,8.95
2017-09-18T06:16:45.857Z,8.52
2017-09-18T06:17:19.579Z,9.93
2017-09-18T06:17:54.051Z,8.57
2017-09-18T06:18:27.757Z,8.55
2017-09-18T06:19:01.474Z,10.77
2017-09-18T06:19:35.943Z,8.77
2017-09-18T06:20:09.668Z,9.98
2017-09-18T06:20:44.132Z,8.63
2017-09-18T06:21:17.841Z,9.20
2017-09-18T06:21:51.564Z,9.18
2017-09-18T06:22:26.042Z,9.75
2017-09-18T06:22:59.740Z,8.27
2017-09-18T06:23:33.451Z,9.65
2017-09-18T06:24:07.911Z,9.10
2017-09-18T06:24:41.610Z,8.30
2017-09-18T06:25:15.618Z,9.57
2017-09-18T06:25:49.344Z,7.93
2017-09-18T06:26:23.824Z,7.68
2017-09-18T06:26:57.545Z,7.65
2017-09-18T06:27:31.826Z,7.80
2017-09-18T06:28:05.533Z,6.93
2017-09-18T06:28:39.999Z,6.60
2017-09-18T06:29:13.709Z,7.78
2017-09-18T06:29:47.420Z,8.43
2017-09-18T06:30:22.337Z,6.57
2017-09-18T06:30:56.807Z,6.72
2017-09-18T06:31:30.329Z,6.82
2017-09-18T06:32:04.803Z,7.05
2017-09-18T06:32:38.509Z,7.75
2017-09-18T06:33:12.053Z,8.80
2017-09-18T06:33:45.773Z,8.43
2017-09-18T06:34:19.472Z,8.25
2017-09-18T06:34:53.185Z,8.27
2017-09-18T06:35:28.019Z,7.47
2017-09-18T06:36:02.486Z,7.93
2017-09-18T06:36:36.238Z,7.30
2017-09-18T06:37:09.957Z,8.38
2017-09-18T06:37:43.667Z,7.90
2017-09-18T06:38:17.376Z,9.07
2017-09-18T06:38:51.853Z,9.50
2017-09-18T06:39:25.880Z,8.23
2017-09-18T06:40:00.169Z,7.50
2017-09-18T06:40:35.045Z,10.00
2017-09-18T06:41:08.751Z,6.85
2017-09-18T06:41:42.457Z,7.35
2017-09-18T06:42:16.151Z,7.15
2017-09-18T06:42:49.858Z,7.50
2017-09-18T06:43:24.336Z,13.50
2017-09-18T06:43:58.054Z,7.93
2017-09-18T06:44:32.527Z,9.30
2017-09-18T06:45:06.245Z,11.23
2017-09-18T06:45:41.093Z,13.00
2017-09-18T06:46:14.816Z,10.80
2017-09-18T06:46:48.537Z,12.10
2017-09-18T06:47:22.252Z,8.70
2017-09-18T06:47:56.733Z,8.82
2017-09-18T06:48:30.455Z,8.05
2017-09-18T06:49:04.955Z,15.50
2017-09-18T06:49:39.444Z,12.65
2017-09-18T06:50:13.163Z,8.52
2017-09-18T06:50:47.257Z,11.45
2017-09-18T06:51:21.763Z,15.77
2017-09-18T06:51:56.245Z,16.08
2017-09-18T06:52:29.964Z,13.07
2017-09-18T06:53:04.459Z,14.87
2017-09-18T06:53:38.968Z,13.40
2017-09-18T06:54:13.505Z,13.35
2017-09-18T06:54:47.242Z,10.25
2017-09-18T06:55:20.953Z,9.52
2017-09-18T06:55:54.980Z,9.88
2017-09-18T06:56:28.688Z,9.80
2017-09-18T06:57:02.411Z,15.15
2017-09-18T06:57:36.139Z,10.13
2017-09-18T06:58:10.702Z,7.07
2017-09-18T06:58:44.413Z,6.60
2017-09-18T06:59:18.124Z,9.10
2017-09-18T06:59:51.853Z,7.97
2017-09-18T07:00:26.239Z,6.70
2017-09-18T07:01:01.056Z,7.12
2017-09-18T07:01:35.531Z,8.32
2017-09-18T07:02:09.245Z,8.45
2017-09-18T07:02:43.713Z,6.97
2017-09-18T07:03:17.428Z,8.00
2017-09-18T07:03:51.144Z,8.55
2017-09-18T07:04:24.879Z,10.38
2017-09-18T07:04:58.589Z,8.80
2017-09-18T07:05:32.311Z,9.25
2017-09-18T07:06:07.073Z,9.10
2017-09-18T07:06:40.793Z,10.77
2017-09-18T07:07:14.566Z,11.45
2017-09-18T07:07:48.297Z,11.50
2017-09-18T07:08:22.773Z,14.25
2017-09-18T07:08:56.495Z,11.15
2017-09-18T07:09:30.983Z,8.65
2017-09-18T07:10:04.681Z,7.85
2017-09-18T07:10:39.003Z,8.32
2017-09-18T07:11:13.793Z,8.68
2017-09-18T07:11:47.512Z,10.73
2017-09-18T07:12:21.997Z,8.80
2017-09-18T07:12:55.705Z,8.75
2017-09-18T07:13:30.169Z,7.82
2017-09-18T07:14:03.882Z,8.57
2017-09-18T07:14:37.599Z,9.68
2017-09-18T07:15:12.079Z,8.43
2017-09-18T07:15:45.800Z,8.23
2017-09-18T07:16:19.917Z,8.57
2017-09-18T07:16:53.644Z,8.40
2017-09-18T07:17:27.361Z,8.98
2017-09-18T07:18:01.073Z,9.63
2017-09-18T07:18:34.789Z,9.75
2017-09-18T07:19:08.498Z,10.23
2017-09-18T07:19:42.217Z,13.00
2017-09-18T07:20:15.921Z,9.13
2017-09-18T07:20:50.405Z,10.20
2017-09-18T07:21:24.448Z,9.80
2017-09-18T07:21:58.169Z,12.45
2017-09-18T07:22:31.876Z,9.32
2017-09-18T07:23:05.589Z,10.18
2017-09-18T07:23:40.089Z,10.55
2017-09-18T07:24:13.792Z,9.20
2017-09-18T07:24:47.501Z,9.60
2017-09-18T07:25:21.209Z,9.80
2017-09-18T07:25:54.918Z,10.15
2017-09-18T07:26:28.987Z,9.07
2017-09-18T07:27:02.723Z,12.40
2017-09-18T07:27:36.464Z,11.70
2017-09-18T07:28:10.192Z,10.88
2017-09-18T07:28:43.934Z,12.27
2017-09-18T07:29:18.432Z,21.10
2017-09-18T07:29:52.931Z,11.15
2017-09-18T07:30:27.193Z,13.82
2017-09-18T07:31:00.909Z,13.15
2017-09-18T07:31:34.963Z,10.57
2017-09-18T07:32:08.682Z,9.85
2017-09-18T07:32:42.407Z,9.80
2017-09-18T07:33:16.134Z,9.98
2017-09-18T07:33:49.872Z,11.38
2017-09-18T07:34:23.410Z,12.80
2017-09-18T07:34:57.135Z,9.63
2017-09-18T07:35:30.861Z,11.02
2017-09-18T07:36:04.222Z,9.60
2017-09-18T07:36:38.066Z,11.07
2017-09-18T07:37:11.769Z,9.60
2017-09-18T07:37:45.480Z,10.38
2017-09-18T07:38:19.252Z,11.25
2017-09-18T07:38:53.116Z,11.73
2017-09-18T07:39:27.604Z,11.00
2017-09-18T07:40:01.331Z,11.55
2017-09-18T07:40:35.056Z,11.48
2017-09-18T07:41:08.785Z,12.57
2017-09-18T07:41:42.812Z,17.60
2017-09-18T07:42:16.542Z,19.50
2017-09-18T07:42:50.261Z,15.20
2017-09-18T07:43:24.747Z,13.40
2017-09-18T07:43:58.471Z,12.35
2017-09-18T07:44:32.968Z,15.05
2017-09-18T07:45:06.722Z,13.15
2017-09-18T07:45:40.445Z,12.65
2017-09-18T07:46:14.181Z,13.68
2017-09-18T07:46:48.261Z,12.50
2017-09-18T07:47:22.748Z,13.82
2017-09-18T07:47:56.492Z,13.77
2017-09-18T07:48:30.042Z,16.30
2017-09-18T07:49:04.526Z,14.60
2017-09-18T07:49:38.251Z,14.55
2017-09-18T07:50:12.725Z,16.70
2017-09-18T07:50:46.444Z,12.82
2017-09-18T07:51:20.950Z,15.10
2017-09-18T07:51:55.778Z,15.20
2017-09-18T07:52:30.256Z,17.23
2017-09-18T07:53:04.015Z,14.27
2017-09-18T07:53:37.741Z,15.35
2017-09-18T07:54:11.278Z,13.80
2017-09-18T07:54:44.989Z,17.02
2017-09-18T07:55:18.711Z,14.45
2017-09-18T07:55:52.237Z,13.25
2017-09-18T07:56:25.427Z,15.85
2017-09-18T07:56:59.509Z,13.68
2017-09-18T07:57:33.284Z,14.80
2017-09-18T07:58:07.773Z,16.17
2017-09-18T07:58:41.497Z,14.52
2017-09-18T07:59:15.201Z,15.90
2017-09-18T07:59:48.910Z,16.33
2017-09-18T08:00:22.621Z,16.12
2017-09-18T08:00:56.327Z,17.37
2017-09-18T08:01:30.065Z,17.02
2017-09-18T08:02:03.673Z,18.12
2017-09-18T08:02:37.388Z,19.35
2017-09-18T08:03:10.761Z,16.90
2017-09-18T08:03:44.482Z,15.85
2017-09-18T08:04:18.962Z,17.02
2017-09-18T08:04:52.514Z,18.70
2017-09-18T08:05:26.237Z,16.55
2017-09-18T08:05:59.987Z,18.08
2017-09-18T08:06:33.719Z,16.30
2017-09-18T08:07:07.780Z,15.77
2017-09-18T08:07:41.491Z,16.12
2017-09-18T08:08:15.233Z,23.15
2017-09-18T08:08:49.735Z,16.62
2017-09-18T08:09:23.517Z,18.25
2017-09-18T08:09:57.242Z,18.08
2017-09-18T08:10:30.964Z,17.30
2017-09-18T08:11:04.676Z,16.87
2017-09-18T08:11:38.397Z,14.60
2017-09-18T08:12:13.237Z,14.95
2017-09-18T08:12:46.987Z,16.70
2017-09-18T08:13:20.708Z,17.08
2017-09-18T08:13:54.436Z,21.33
2017-09-18T08:14:28.176Z,18.45
2017-09-18T08:15:02.661Z,18.05
2017-09-18T08:15:36.400Z,17.52
2017-09-18T08:16:10.117Z,19.33
2017-09-18T08:16:43.852Z,21.35
2017-09-18T08:17:18.669Z,17.12
2017-09-18T08:17:53.221Z,16.73
2017-09-18T08:18:26.946Z,16.65
2017-09-18T08:19:00.654Z,18.90
2017-09-18T08:19:34.372Z,19.30
2017-09-18T08:20:08.091Z,19.80
2017-09-18T08:20:41.876Z,19.17
2017-09-18T08:21:15.586Z,18.70
2017-09-18T08:21:49.127Z,16.10
2017-09-18T08:22:23.950Z,17.30
2017-09-18T08:22:57.493Z,16.10
2017-09-18T08:23:31.228Z,15.60
2017-09-18T08:24:04.948Z,17.10
2017-09-18T08:24:38.680Z,16.67
2017-09-18T08:25:12.220Z,17.12
2017-09-18T08:25:45.951Z,16.55
2017-09-18T08:26:19.490Z,16.75
2017-09-18T08:26:53.228Z,16.75
2017-09-18T08:27:27.275Z,16.00
2017-09-18T08:28:01.033Z,15.80
2017-09-18T08:28:35.526Z,16.35
2017-09-18T08:29:09.266Z,16.83
2017-09-18T08:29:42.815Z,16.10
2017-09-18T08:30:17.120Z,16.58
2017-09-18T08:30:51.614Z,16.08
2017-09-18T08:31:25.324Z,17.35
2017-09-18T08:31:59.805Z,16.98
2017-09-18T08:32:33.844Z,17.52
2017-09-18T08:33:07.573Z,16.62
2017-09-18T08:33:41.293Z,16.75
2017-09-18T08:34:15.010Z,17.60
2017-09-18T08:34:49.493Z,16.08
2017-09-18T08:35:23.225Z,15.93
2017-09-18T08:35:56.924Z,18.05
2017-09-18T08:36:30.696Z,17.73
2017-09-18T08:37:05.178Z,17.30
2017-09-18T08:37:39.207Z,17.80
2017-09-18T08:38:12.926Z,17.83
2017-09-18T08:38:46.653Z,18.80
2017-09-18T08:39:20.371Z,17.80